Weather at Yevpatoriya Airport

Public forecast

Using degrees Celsius for public forecast. Weather courtesy of forecast.io.

Closest aviation weather report (METAR) to Yevpatoriya Airport

Closest report is Anapa Vityazevo Airport, 168.8 nm (312.5 km) E.

2024/04/12 17:00 (retrieved 40 minutes ago)

URKA 121700Z 21004MPS 9000 SCT004 12/12 Q1020 R22/010070 TEMPO 0200 FG BKN002 RMK QFE760/1013

Closest aviation forecast (TAF) to Yevpatoriya Airport

Closest forecast is Anapa Vityazevo Airport, 168.8 nm (312.5 km) E.

2024/04/12 15:21 (retrieved 2 hours ago)

TAF TAF URKA 121352Z 1215/1315 23006G12MPS 9999 SCT030 TEMPO 1215/1217 BKN004 FM121700 20003G08MPS 6000 SCT007 BKN020CB TEMPO 1217/1305 0300 FG BKN003 BKN016CB FM130500 19006G11MPS 9999 SCT020CB TEMPO 1305/1312 22008G13MPS 6000 -SHRA SCT005 BKN016CB